createdAt,value
2023-03-10T00:02:22.245Z,2.97
2023-03-10T00:07:25.151Z,1.70
2023-03-10T00:12:28.060Z,1.30
2023-03-10T00:17:32.661Z,1.23
2023-03-10T00:22:35.869Z,1.42
2023-03-10T00:27:38.724Z,0.85
2023-03-10T00:32:42.914Z,1.80
2023-03-10T00:37:45.691Z,0.80
2023-03-10T00:42:50.792Z,0.60
2023-03-10T00:47:54.947Z,0.80
2023-03-10T00:52:57.725Z,0.70
2023-03-10T00:58:00.606Z,1.00
2023-03-10T01:03:04.839Z,1.52
2023-03-10T01:08:07.593Z,0.80
2023-03-10T01:13:11.219Z,0.80
2023-03-10T01:18:16.492Z,0.75
2023-03-10T01:23:21.950Z,0.75
2023-03-10T01:28:26.028Z,0.90
2023-03-10T01:33:30.271Z,0.60
2023-03-10T01:38:34.100Z,0.90
2023-03-10T01:43:37.974Z,0.57
2023-03-10T01:48:42.302Z,1.02
2023-03-10T01:53:45.877Z,0.77
2023-03-10T01:58:49.377Z,0.60
2023-03-10T02:03:58.156Z,0.98
2023-03-10T02:09:03.541Z,0.93
2023-03-10T02:14:06.893Z,0.95
2023-03-10T02:19:24.042Z,0.93
2023-03-10T02:24:32.673Z,1.08
2023-03-10T02:29:52.406Z,0.90
2023-03-10T02:35:02.059Z,0.85
2023-03-10T02:40:33.873Z,0.70
2023-03-10T02:45:45.690Z,0.90
2023-03-10T02:55:52.640Z,1.08
2023-03-10T03:00:57.671Z,0.95
2023-03-10T03:06:01.248Z,1.38
2023-03-10T03:11:05.095Z,1.30
2023-03-10T03:16:10.268Z,1.42
2023-03-10T03:21:17.345Z,1.20
2023-03-10T03:31:29.588Z,1.30
2023-03-10T03:36:41.317Z,1.92
2023-03-10T03:41:46.324Z,1.65
2023-03-10T03:46:50.691Z,1.85
2023-03-10T03:51:53.948Z,3.47
2023-03-10T03:56:59.529Z,1.55
2023-03-10T04:02:05.009Z,2.60
2023-03-10T04:07:07.953Z,1.25
2023-03-10T04:12:11.364Z,1.13
2023-03-10T04:17:18.686Z,1.65
2023-03-10T04:22:22.545Z,1.65
2023-03-10T04:27:26.196Z,1.42
2023-03-10T04:32:32.403Z,1.92
2023-03-10T04:37:35.995Z,1.63
2023-03-10T04:42:39.636Z,2.50
2023-03-10T04:47:45.016Z,4.40
2023-03-10T04:52:49.959Z,1.85
2023-03-10T04:57:55.020Z,2.65
2023-03-10T05:02:59.329Z,2.75
2023-03-10T05:08:02.369Z,1.38
2023-03-10T05:13:06.444Z,1.60
2023-03-10T05:18:12.165Z,2.08
2023-03-10T05:23:15.624Z,4.93
2023-03-10T05:28:18.620Z,4.78
2023-03-10T05:33:22.856Z,2.25
2023-03-10T05:38:27.067Z,2.65
2023-03-10T05:43:30.273Z,2.08
2023-03-10T05:48:35.090Z,2.60
2023-03-10T05:53:38.930Z,1.98
2023-03-10T06:03:51.675Z,2.85
2023-03-10T06:08:55.048Z,2.58
2023-03-10T06:13:57.985Z,1.60
2023-03-10T06:19:02.202Z,1.23
2023-03-10T06:24:05.100Z,1.45
2023-03-10T06:29:10.141Z,2.25
2023-03-10T06:34:14.487Z,2.15
2023-03-10T06:39:38.915Z,1.42
2023-03-10T06:44:41.892Z,1.67
2023-03-10T06:49:45.968Z,1.38
2023-03-10T06:54:49.162Z,2.75
2023-03-10T06:59:52.772Z,1.70
2023-03-10T07:04:58.182Z,1.45
2023-03-10T07:10:02.562Z,2.60
2023-03-10T07:15:08.007Z,1.90
2023-03-10T07:20:14.165Z,1.83
2023-03-10T07:25:17.134Z,1.83
2023-03-10T07:30:23.205Z,1.38
2023-03-10T07:35:28.670Z,1.58
2023-03-10T07:40:31.854Z,2.22
2023-03-10T07:45:36.380Z,1.73
2023-03-10T07:50:41.262Z,2.63
2023-03-10T07:55:44.864Z,2.15
2023-03-10T08:00:49.653Z,2.83
2023-03-10T08:05:54.283Z,2.60
2023-03-10T08:11:06.202Z,1.38
2023-03-10T08:16:09.758Z,2.05
2023-03-10T08:21:14.228Z,2.42
2023-03-10T08:26:19.085Z,1.92
2023-03-10T08:31:23.292Z,3.17
2023-03-10T08:36:30.503Z,3.35
2023-03-10T08:41:36.410Z,1.70
2023-03-10T08:46:40.284Z,2.88
2023-03-10T08:51:45.246Z,2.92
2023-03-10T08:56:49.106Z,3.72
2023-03-10T09:01:52.033Z,2.83
2023-03-10T09:06:56.350Z,1.98
2023-03-10T09:11:59.157Z,2.33
2023-03-10T09:17:01.990Z,1.90
2023-03-10T09:22:06.344Z,2.58
2023-03-10T09:27:09.040Z,2.47
2023-03-10T09:32:15.530Z,2.50
2023-03-10T09:37:19.893Z,1.98
2023-03-10T09:42:42.079Z,2.30
2023-03-10T09:47:54.706Z,2.03
2023-03-10T09:53:07.256Z,2.03
2023-03-10T09:58:16.434Z,2.47
2023-03-10T10:03:23.443Z,2.55
2023-03-10T10:08:30.312Z,2.60
2023-03-10T10:13:35.945Z,3.08
2023-03-10T10:18:42.818Z,2.45
2023-03-10T10:23:51.178Z,2.00
2023-03-10T10:28:56.587Z,2.05
2023-03-10T10:34:01.271Z,1.98
2023-03-10T10:39:27.553Z,1.60
2023-03-10T10:44:30.932Z,1.40
2023-03-10T10:49:37.401Z,2.70
2023-03-10T10:54:44.440Z,1.50
2023-03-10T10:59:47.400Z,1.58
2023-03-10T11:04:51.436Z,1.42
2023-03-10T11:09:57.901Z,3.13
2023-03-10T11:15:12.691Z,1.40
2023-03-10T11:20:26.334Z,1.60
2023-03-10T11:25:37.865Z,3.05
2023-03-10T11:30:48.705Z,1.40
2023-03-10T11:35:55.217Z,1.48
2023-03-10T11:41:05.409Z,0.80
2023-03-10T11:46:16.551Z,1.05
2023-03-10T11:51:31.419Z,0.93
2023-03-10T11:56:40.822Z,2.25
2023-03-10T12:01:48.380Z,0.52
2023-03-10T12:06:58.526Z,0.40
2023-03-10T12:12:05.454Z,0.40
2023-03-10T12:17:13.412Z,0.65
2023-03-10T12:22:26.265Z,1.20
2023-03-10T12:27:30.590Z,0.80
2023-03-10T12:32:47.485Z,0.70
2023-03-10T12:42:56.227Z,0.55
2023-03-10T12:48:09.168Z,0.82
2023-03-10T12:53:32.611Z,0.50
2023-03-10T12:58:38.662Z,0.82
2023-03-10T13:03:47.267Z,0.68
2023-03-10T13:08:53.388Z,0.70
2023-03-10T13:14:03.175Z,0.52
2023-03-10T13:19:06.603Z,0.63
2023-03-10T13:24:24.075Z,0.60
2023-03-10T13:29:28.465Z,0.57
2023-03-10T13:34:34.160Z,0.50
2023-03-10T13:39:37.534Z,0.60
2023-03-10T13:44:44.671Z,0.50
2023-03-10T13:49:51.110Z,0.60
2023-03-10T13:55:06.167Z,0.70
2023-03-10T14:00:16.106Z,0.60
2023-03-10T14:05:39.428Z,0.40
2023-03-10T14:10:42.271Z,0.52
2023-03-10T14:15:56.011Z,0.90
2023-03-10T14:21:24.333Z,0.82
2023-03-10T14:26:27.196Z,1.20
2023-03-10T14:31:31.361Z,0.90
2023-03-10T14:36:34.469Z,0.60
2023-03-10T14:41:37.378Z,0.40
2023-03-10T14:46:42.619Z,0.47
2023-03-10T14:51:45.573Z,0.70
2023-03-10T14:56:52.470Z,0.95
2023-03-10T15:01:58.253Z,0.40
2023-03-10T15:07:01.217Z,0.45
2023-03-10T15:12:04.901Z,0.90
2023-03-10T15:17:11.438Z,0.40
2023-03-10T15:22:14.277Z,1.20
2023-03-10T15:27:17.137Z,0.70
2023-03-10T15:32:21.656Z,1.30
2023-03-10T15:37:24.646Z,1.10
2023-03-10T15:42:27.756Z,1.52
2023-03-10T15:47:32.565Z,1.48
2023-03-10T15:52:36.392Z,1.55
2023-03-10T15:57:41.148Z,2.53
2023-03-10T16:02:45.887Z,3.60
2023-03-10T16:07:48.845Z,2.70
2023-03-10T16:12:52.527Z,2.75
2023-03-10T16:17:56.632Z,4.25
2023-03-10T16:22:59.574Z,1.33
2023-03-10T16:28:03.307Z,1.77
2023-03-10T16:33:07.622Z,1.20
2023-03-10T16:38:10.443Z,1.00
2023-03-10T16:43:14.719Z,1.27
2023-03-10T16:48:20.463Z,0.60
2023-03-10T16:53:23.704Z,2.92
2023-03-10T16:58:27.641Z,1.02
2023-03-10T17:03:31.927Z,1.30
2023-03-10T17:08:34.858Z,1.02
2023-03-10T17:13:38.730Z,0.82
2023-03-10T17:18:43.119Z,1.10
2023-03-10T17:23:48.156Z,0.85
2023-03-10T17:28:52.595Z,1.63
2023-03-10T17:33:59.187Z,1.60
2023-03-10T17:39:03.700Z,1.00
2023-03-10T17:44:06.719Z,0.75
2023-03-10T17:49:13.163Z,0.93
2023-03-10T17:54:18.000Z,0.57
2023-03-10T17:59:21.260Z,1.00
2023-03-10T18:04:29.604Z,0.70
2023-03-10T18:09:32.817Z,1.13
2023-03-10T18:14:35.723Z,0.90
2023-03-10T18:19:39.799Z,2.45
2023-03-10T18:24:42.754Z,1.60
2023-03-10T18:29:46.683Z,2.25
2023-03-10T18:34:52.260Z,3.60
2023-03-10T18:39:55.184Z,2.88
2023-03-10T18:44:58.604Z,3.85
2023-03-10T18:50:03.673Z,4.43
2023-03-10T18:55:08.360Z,4.20
2023-03-10T19:00:15.503Z,5.40
2023-03-10T19:05:20.029Z,6.82
2023-03-10T19:10:23.363Z,6.85
2023-03-10T19:15:26.363Z,6.90
2023-03-10T19:20:30.804Z,6.10
2023-03-10T19:25:34.685Z,6.40
2023-03-10T19:30:37.854Z,7.78
2023-03-10T19:35:42.079Z,6.45
2023-03-10T19:40:47.023Z,5.75
2023-03-10T19:45:50.101Z,5.85
2023-03-10T19:50:55.826Z,5.38
2023-03-10T19:56:00.897Z,5.30
2023-03-10T20:01:03.903Z,6.80
2023-03-10T20:06:08.635Z,6.68
2023-03-10T20:11:13.550Z,6.70
2023-03-10T20:16:18.446Z,7.88
2023-03-10T20:21:23.635Z,6.75
2023-03-10T20:26:26.886Z,7.03
2023-03-10T20:31:33.972Z,6.35
2023-03-10T20:36:39.963Z,5.53
2023-03-10T20:41:44.990Z,5.33
2023-03-10T20:46:48.097Z,5.45
2023-03-10T20:51:53.818Z,5.43
2023-03-10T20:56:56.970Z,3.03
2023-03-10T21:01:59.907Z,3.38
2023-03-10T21:07:04.203Z,4.15
2023-03-10T21:12:07.376Z,3.90
2023-03-10T21:17:10.783Z,3.72
2023-03-10T21:22:15.680Z,4.03
2023-03-10T21:27:20.767Z,4.10
2023-03-10T21:32:25.894Z,4.47
2023-03-10T21:37:31.189Z,4.00
2023-03-10T21:42:34.049Z,4.25
2023-03-10T21:47:37.753Z,4.07
2023-03-10T21:52:42.353Z,4.78
2023-03-10T21:57:45.341Z,4.32
2023-03-10T22:02:48.759Z,4.15
2023-03-10T22:07:53.398Z,3.40
2023-03-10T22:12:56.305Z,3.45
2023-03-10T22:17:59.644Z,3.28
2023-03-10T22:23:04.968Z,3.00
2023-03-10T22:28:07.683Z,2.97
2023-03-10T22:33:10.819Z,3.20
2023-03-10T22:38:15.226Z,3.33
2023-03-10T22:43:18.023Z,2.50
2023-03-10T22:48:21.141Z,2.70
2023-03-10T22:53:25.316Z,3.00
2023-03-10T22:58:28.380Z,3.10
2023-03-10T23:03:31.338Z,2.78
2023-03-10T23:08:37.372Z,2.55
2023-03-10T23:13:40.362Z,2.47
2023-03-10T23:18:43.631Z,3.08
2023-03-10T23:23:49.238Z,2.75
2023-03-10T23:28:52.270Z,2.10
2023-03-10T23:33:55.025Z,2.97
2023-03-10T23:38:59.256Z,2.65
2023-03-10T23:44:02.220Z,3.13
2023-03-10T23:49:05.021Z,2.10
2023-03-10T23:54:09.414Z,2.35
2023-03-10T23:59:12.233Z,2.65
